Time;durP1;ratioP1;P1;durP2;ratioP2;P2;SDS_P1;SDS_P2;PMS_P1;PMS_P2;Temp;Humidity;BMP_temperature;BMP_pressure;BME280_temperature;BME280_humidity;BME280_pressure;Samples;Min_cycle;Max_cycle;Signal;HPM_P1;HPM_P2
2023/12/01 00:00:10;;;;;;;23.57;18.13;;;3.40;99.90;;;;;;5028461;28;20293;-61
2023/12/01 00:02:37;;;;;;;26.50;20.83;;;3.40;99.90;;;;;;5022469;28;20632;-60
2023/12/01 00:05:05;;;;;;;27.63;20.20;;;3.40;99.90;;;;;;5032162;28;20700;-61
2023/12/01 00:07:33;;;;;;;25.43;19.80;;;3.40;99.90;;;;;;5032894;28;20204;-61
2023/12/01 00:10:00;;;;;;;26.63;19.27;;;3.40;99.90;;;;;;5030641;28;20200;-61
2023/12/01 00:12:27;;;;;;;24.40;19.10;;;3.50;99.90;;;;;;5033058;28;20201;-61
2023/12/01 00:14:54;;;;;;;24.13;18.23;;;3.50;99.90;;;;;;5031559;28;20201;-61
2023/12/01 00:17:21;;;;;;;21.53;17.23;;;3.50;99.90;;;;;;5024716;28;20275;-61
2023/12/01 00:19:48;;;;;;;25.27;17.60;;;3.60;99.90;;;;;;5021559;28;20278;-61
2023/12/01 00:22:15;;;;;;;24.93;18.47;;;3.50;99.90;;;;;;5023996;28;20726;-61
2023/12/01 00:24:43;;;;;;;27.10;19.47;;;3.60;99.90;;;;;;5031364;28;20579;-61
2023/12/01 00:27:10;;;;;;;27.23;19.87;;;3.60;99.90;;;;;;5031913;28;20259;-61
2023/12/01 00:29:37;;;;;;;20.47;17.90;;;3.60;99.90;;;;;;5028427;28;20192;-61
2023/12/01 00:32:04;;;;;;;25.60;19.17;;;3.60;99.90;;;;;;5031462;28;20680;-61
2023/12/01 00:34:31;;;;;;;23.97;19.37;;;3.60;99.90;;;;;;5032985;28;20196;-61
2023/12/01 00:36:58;;;;;;;21.00;17.40;;;3.60;99.90;;;;;;5031301;28;20592;-61
2023/12/01 00:39:26;;;;;;;23.57;19.33;;;3.60;99.90;;;;;;5025501;28;20260;-61
2023/12/01 00:41:54;;;;;;;20.10;17.50;;;3.60;99.90;;;;;;5025754;28;20286;-61
2023/12/01 00:44:21;;;;;;;21.37;19.00;;;3.60;99.90;;;;;;5029438;28;20201;-61
2023/12/01 00:46:48;;;;;;;20.33;17.70;;;3.60;99.90;;;;;;5032080;28;20226;-61
2023/12/01 00:49:15;;;;;;;26.37;18.23;;;3.50;99.90;;;;;;5030586;28;20261;-61
2023/12/01 00:51:45;;;;;;;19.80;17.23;;;3.50;99.90;;;;;;5031461;28;20605;-61
2023/12/01 00:54:11;;;;;;;22.97;19.33;;;3.50;99.90;;;;;;5029217;28;20781;-61
2023/12/01 00:56:42;;;;;;;21.23;18.07;;;3.60;99.90;;;;;;5030334;28;20220;-61
2023/12/01 00:59:10;;;;;;;21.23;17.57;;;3.60;99.90;;;;;;5024642;28;20673;-61
2023/12/01 01:01:37;;;;;;;18.80;16.73;;;3.60;99.90;;;;;;5017094;28;20751;-62
2023/12/01 01:04:04;;;;;;;19.37;16.10;;;3.60;99.90;;;;;;5030655;28;20766;-61
2023/12/01 01:06:31;;;;;;;19.77;16.53;;;3.60;99.90;;;;;;5031785;28;20294;-61
2023/12/01 01:08:58;;;;;;;25.00;18.13;;;3.60;99.90;;;;;;5031859;28;20270;-61
2023/12/01 01:11:25;;;;;;;20.47;16.63;;;3.60;99.90;;;;;;5033262;28;20259;-62
2023/12/01 01:13:52;;;;;;;21.83;17.57;;;3.60;99.90;;;;;;5027074;28;20215;-60
2023/12/01 01:16:22;;;;;;;22.73;17.60;;;3.60;99.90;;;;;;5030782;28;20218;-61
2023/12/01 01:18:49;;;;;;;19.93;17.63;;;3.60;99.90;;;;;;5024994;28;20205;-62
2023/12/01 01:21:16;;;;;;;19.37;16.27;;;3.60;99.90;;;;;;5017139;28;20228;-61
2023/12/01 01:23:43;;;;;;;19.10;15.93;;;3.60;99.90;;;;;;5031798;28;20257;-60
2023/12/01 01:26:10;;;;;;;21.13;18.03;;;3.60;99.90;;;;;;5032410;28;20221;-61
2023/12/01 01:28:36;;;;;;;19.00;16.80;;;3.60;99.90;;;;;;5031742;28;20203;-61
2023/12/01 01:31:04;;;;;;;21.53;17.37;;;3.60;99.90;;;;;;5031838;28;20570;-61
2023/12/01 01:33:32;;;;;;;20.57;17.23;;;3.60;99.90;;;;;;5030358;28;20260;-61
2023/12/01 01:35:59;;;;;;;19.57;17.00;;;3.60;99.90;;;;;;5031574;28;20716;-61
2023/12/01 01:38:26;;;;;;;23.03;18.87;;;3.60;99.90;;;;;;5026954;28;20203;-61
2023/12/01 01:40:53;;;;;;;21.57;17.90;;;3.60;99.90;;;;;;5024712;28;20268;-61
2023/12/01 01:43:21;;;;;;;22.33;18.17;;;3.60;99.90;;;;;;5031440;28;20200;-61
2023/12/01 01:45:54;;;;;;;20.17;17.97;;;3.60;99.90;;;;;;5031799;28;20782;-61
2023/12/01 01:48:21;;;;;;;19.40;17.30;;;3.60;99.90;;;;;;5027959;28;20204;-61
2023/12/01 01:50:49;;;;;;;24.47;16.10;;;3.60;99.90;;;;;;5029222;28;20219;-62
2023/12/01 01:53:16;;;;;;;17.93;16.03;;;3.60;99.90;;;;;;5030656;28;20255;-61
2023/12/01 01:55:44;;;;;;;22.10;17.47;;;3.60;99.90;;;;;;5032082;28;20229;-61
2023/12/01 01:58:13;;;;;;;19.17;16.40;;;3.60;99.90;;;;;;5030584;28;20201;-61
2023/12/01 02:00:40;;;;;;;23.50;17.47;;;3.70;99.90;;;;;;5020414;28;20259;-61
2023/12/01 02:03:07;;;;;;;20.63;15.90;;;3.70;99.90;;;;;;5028637;28;20204;-61
2023/12/01 02:05:34;;;;;;;20.83;16.47;;;3.60;99.90;;;;;;5031563;28;20277;-61
2023/12/01 02:08:27;;;;;;;23.40;17.97;;;3.70;99.90;;;;;;5029715;28;20239;-61
2023/12/01 02:10:55;;;;;;;23.30;18.00;;;3.60;99.90;;;;;;5032108;28;20200;-61
2023/12/01 02:13:22;;;;;;;19.03;16.27;;;3.70;99.90;;;;;;5015688;28;20196;-61
2023/12/01 02:15:49;;;;;;;18.83;16.40;;;3.70;99.90;;;;;;5027229;28;20283;-62
2023/12/01 02:18:19;;;;;;;19.13;17.13;;;3.70;99.90;;;;;;5028538;28;20209;-61
2023/12/01 02:20:46;;;;;;;22.47;19.17;;;3.70;99.90;;;;;;5026014;28;20272;-61
2023/12/01 02:23:14;;;;;;;21.77;18.50;;;3.70;99.90;;;;;;5025345;28;20308;-61
2023/12/01 02:25:41;;;;;;;19.90;17.17;;;3.70;99.90;;;;;;5023070;28;20664;-61
2023/12/01 02:28:08;;;;;;;18.33;15.60;;;3.70;99.90;;;;;;5030962;28;20205;-61
2023/12/01 02:30:35;;;;;;;22.47;18.47;;;3.70;99.90;;;;;;5031316;28;20197;-61
2023/12/01 02:33:02;;;;;;;18.93;16.87;;;3.70;99.90;;;;;;5030614;28;20201;-61
2023/12/01 02:35:29;;;;;;;26.23;18.63;;;3.70;99.90;;;;;;5031012;28;20269;-61
2023/12/01 02:37:56;;;;;;;21.33;17.57;;;3.80;99.90;;;;;;5027955;28;20205;-60
2023/12/01 02:40:25;;;;;;;18.83;15.70;;;3.70;99.90;;;;;;5020914;28;20280;-61
2023/12/01 02:42:53;;;;;;;20.03;17.93;;;3.70;99.90;;;;;;5018358;28;20731;-61
2023/12/01 02:45:21;;;;;;;21.90;18.57;;;3.80;99.90;;;;;;5019835;28;20266;-61
2023/12/01 02:47:49;;;;;;;20.87;17.20;;;3.70;99.90;;;;;;5024299;28;20330;-61
2023/12/01 02:50:17;;;;;;;21.27;18.33;;;3.70;99.90;;;;;;5030224;28;20303;-61
2023/12/01 02:52:44;;;;;;;24.67;19.70;;;3.80;99.90;;;;;;5030119;28;20200;-61
2023/12/01 02:55:12;;;;;;;22.40;19.13;;;3.70;99.90;;;;;;5028738;28;20606;-61
2023/12/01 02:57:42;;;;;;;21.73;17.70;;;3.70;99.90;;;;;;5030793;28;20293;-61
2023/12/01 03:00:13;;;;;;;22.43;17.93;;;3.70;99.90;;;;;;5028215;28;20700;-61
2023/12/01 03:02:40;;;;;;;20.67;18.30;;;3.70;99.90;;;;;;5024096;28;20211;-61
2023/12/01 03:05:07;;;;;;;18.80;16.67;;;3.80;99.90;;;;;;5030885;28;20217;-61
2023/12/01 03:07:34;;;;;;;18.73;16.60;;;3.80;99.90;;;;;;5030135;28;20668;-62
2023/12/01 03:10:01;;;;;;;24.43;19.43;;;3.80;99.90;;;;;;5031204;28;20199;-61
2023/12/01 03:12:28;;;;;;;22.27;19.20;;;3.70;99.90;;;;;;5028507;28;20248;-61
2023/12/01 03:14:58;;;;;;;22.57;18.73;;;3.70;99.90;;;;;;5025590;28;20228;-61
2023/12/01 03:17:25;;;;;;;22.13;17.90;;;3.70;99.90;;;;;;5025655;28;20246;-61
2023/12/01 03:19:52;;;;;;;20.33;17.37;;;3.70;99.90;;;;;;5031280;28;20259;-61
2023/12/01 03:22:19;;;;;;;20.73;17.57;;;3.80;99.90;;;;;;5020737;28;20201;-61
2023/12/01 03:24:47;;;;;;;20.47;17.50;;;3.70;99.90;;;;;;5027654;28;20296;-61
2023/12/01 03:27:15;;;;;;;22.07;18.93;;;3.80;99.90;;;;;;5030568;28;20255;-62
2023/12/01 03:29:42;;;;;;;21.23;17.20;;;3.70;99.90;;;;;;5031095;28;20244;-62
2023/12/01 03:32:10;;;;;;;20.97;17.87;;;3.70;99.90;;;;;;5028280;28;20200;-61
2023/12/01 03:34:37;;;;;;;18.40;16.50;;;3.70;99.90;;;;;;5031265;28;20196;-61
2023/12/01 03:37:04;;;;;;;21.23;17.30;;;3.70;99.90;;;;;;5029680;28;20231;-60
2023/12/01 03:39:31;;;;;;;19.87;17.00;;;3.70;99.90;;;;;;5037152;28;20205;-60
2023/12/01 03:41:58;;;;;;;22.13;17.77;;;3.80;99.90;;;;;;5028430;28;20217;-61
2023/12/01 03:44:25;;;;;;;23.03;18.40;;;3.70;99.90;;;;;;5030654;28;20287;-61
2023/12/01 03:46:52;;;;;;;31.50;21.23;;;3.70;99.90;;;;;;5034252;28;20287;-61
2023/12/01 03:49:20;;;;;;;25.07;19.40;;;3.70;99.90;;;;;;5034760;28;20258;-62
2023/12/01 03:51:47;;;;;;;23.37;18.73;;;3.80;99.90;;;;;;5033198;28;20201;-61
2023/12/01 03:54:14;;;;;;;25.17;18.83;;;3.80;99.90;;;;;;5040986;28;20203;-61
2023/12/01 03:56:41;;;;;;;30.83;21.37;;;3.80;99.90;;;;;;5042515;28;20779;-61
2023/12/01 03:59:10;;;;;;;22.63;19.73;;;3.90;99.90;;;;;;5034372;28;20218;-61
2023/12/01 04:01:41;;;;;;;25.80;20.00;;;4.00;99.90;;;;;;5033427;28;20311;-61
2023/12/01 04:04:10;;;;;;;24.00;19.53;;;4.00;99.90;;;;;;5025827;28;20206;-61
2023/12/01 04:06:42;;;;;;;29.70;22.10;;;4.00;99.90;;;;;;5014729;28;20236;-61
2023/12/01 04:09:09;;;;;;;24.93;19.67;;;4.00;99.90;;;;;;5036689;28;20201;-61
2023/12/01 04:11:37;;;;;;;23.17;19.93;;;4.00;99.90;;;;;;5037524;28;20211;-61
2023/12/01 04:14:05;;;;;;;26.40;20.70;;;4.00;99.90;;;;;;5024734;28;20200;-63
2023/12/01 04:16:32;;;;;;;22.13;18.97;;;4.00;99.90;;;;;;5014019;28;20221;-61
2023/12/01 04:18:59;;;;;;;21.27;18.40;;;3.90;99.90;;;;;;5017616;28;20267;-61
2023/12/01 04:21:27;;;;;;;21.77;18.07;;;3.90;99.90;;;;;;5031866;28;20255;-61
2023/12/01 04:23:55;;;;;;;26.97;20.20;;;3.90;99.90;;;;;;5025784;28;20260;-61
2023/12/01 04:26:22;;;;;;;22.83;20.30;;;4.00;99.90;;;;;;5013938;28;20284;-62
2023/12/01 04:28:49;;;;;;;22.40;17.90;;;4.00;99.90;;;;;;5021823;28;20250;-63
2023/12/01 04:31:16;;;;;;;25.27;20.13;;;4.00;99.90;;;;;;5033720;28;20200;-62
2023/12/01 04:33:42;;;;;;;25.63;20.37;;;4.00;99.90;;;;;;5034091;28;20263;-63
2023/12/01 04:36:11;;;;;;;24.50;19.53;;;4.00;99.90;;;;;;5029880;28;20644;-62
2023/12/01 04:38:38;;;;;;;23.90;18.90;;;4.00;99.90;;;;;;5031854;28;20231;-63
2023/12/01 04:41:09;;;;;;;25.90;20.00;;;4.00;99.90;;;;;;5033649;28;20243;-63
2023/12/01 04:43:38;;;;;;;22.23;18.40;;;4.00;99.90;;;;;;5030624;28;20200;-62
2023/12/01 04:46:06;;;;;;;20.17;16.93;;;4.00;99.90;;;;;;5032830;28;20312;-63
2023/12/01 04:48:33;;;;;;;20.40;16.90;;;4.00;99.90;;;;;;5033017;28;20734;-63
2023/12/01 04:51:00;;;;;;;21.03;17.43;;;4.00;99.90;;;;;;5032893;28;20247;-62
2023/12/01 04:53:27;;;;;;;18.97;17.07;;;4.00;99.90;;;;;;5027846;28;20202;-62
2023/12/01 04:55:54;;;;;;;24.50;18.70;;;4.00;99.90;;;;;;5032917;28;20227;-62
2023/12/01 04:58:22;;;;;;;24.13;19.93;;;4.10;99.90;;;;;;5032646;28;20246;-62
2023/12/01 05:00:49;;;;;;;22.60;18.20;;;4.00;99.90;;;;;;5029606;28;20567;-62
2023/12/01 05:03:16;;;;;;;27.47;20.07;;;4.00;99.90;;;;;;5031924;28;20262;-61
2023/12/01 05:05:43;;;;;;;25.57;20.37;;;4.00;99.90;;;;;;5032704;28;20237;-61
2023/12/01 05:08:11;;;;;;;24.67;19.13;;;4.00;99.90;;;;;;5023180;28;20216;-61
2023/12/01 05:10:44;;;;;;;24.93;19.23;;;4.00;99.90;;;;;;5030177;28;20248;-61
2023/12/01 05:13:12;;;;;;;26.10;19.87;;;4.00;99.90;;;;;;5028359;28;20276;-61
2023/12/01 05:15:40;;;;;;;23.90;19.30;;;4.00;99.90;;;;;;5032904;28;20224;-61
2023/12/01 05:18:10;;;;;;;26.97;20.63;;;4.00;99.90;;;;;;5032625;28;20205;-61
2023/12/01 05:20:37;;;;;;;28.37;21.30;;;4.00;99.90;;;;;;5031919;28;20200;-61
2023/12/01 05:23:08;;;;;;;24.53;20.07;;;4.10;99.90;;;;;;5032168;28;20212;-61
2023/12/01 05:25:36;;;;;;;27.47;20.87;;;4.10;99.90;;;;;;5031234;28;20227;-61
2023/12/01 05:28:05;;;;;;;25.53;19.53;;;4.10;99.90;;;;;;5030769;28;20200;-61
2023/12/01 05:30:34;;;;;;;23.67;18.93;;;4.10;99.90;;;;;;5017237;28;20256;-61
2023/12/01 05:33:04;;;;;;;25.40;20.67;;;4.10;99.90;;;;;;5029442;28;20205;-61
2023/12/01 05:35:32;;;;;;;27.40;19.83;;;4.10;99.90;;;;;;5032496;28;20259;-62
2023/12/01 05:37:59;;;;;;;23.13;18.13;;;4.10;99.90;;;;;;5029284;28;20201;-62
2023/12/01 05:40:28;;;;;;;24.90;19.17;;;4.10;99.90;;;;;;5024317;28;20199;-62
2023/12/01 05:42:56;;;;;;;23.73;19.23;;;4.10;99.90;;;;;;5027439;28;20658;-62
2023/12/01 05:45:23;;;;;;;22.10;17.70;;;4.10;99.90;;;;;;5031712;28;20777;-62
2023/12/01 05:47:52;;;;;;;21.40;17.97;;;4.10;99.90;;;;;;5030817;28;20227;-62
2023/12/01 05:50:21;;;;;;;21.30;16.90;;;4.20;99.90;;;;;;5021222;28;20206;-62
2023/12/01 05:52:51;;;;;;;21.83;17.97;;;4.20;99.90;;;;;;5027282;28;20205;-62
2023/12/01 05:55:20;;;;;;;20.03;15.93;;;4.20;99.90;;;;;;5029396;28;20255;-62
2023/12/01 05:57:48;;;;;;;23.57;18.70;;;4.10;99.90;;;;;;5031790;28;20250;-62
2023/12/01 06:00:17;;;;;;;23.60;20.13;;;4.10;99.90;;;;;;5030123;28;20605;-62
2023/12/01 06:02:45;;;;;;;23.37;19.93;;;4.10;99.90;;;;;;5031252;28;20228;-62
2023/12/01 06:05:13;;;;;;;23.67;19.33;;;4.10;99.90;;;;;;5030858;28;20293;-62
2023/12/01 06:07:44;;;;;;;23.47;18.23;;;4.10;99.90;;;;;;5031830;28;20602;-61
2023/12/01 06:10:11;;;;;;;21.93;18.50;;;4.10;99.90;;;;;;5030626;28;20265;-62
2023/12/01 06:12:38;;;;;;;21.90;16.83;;;4.10;99.90;;;;;;5028315;28;20258;-62
2023/12/01 06:15:07;;;;;;;20.33;16.67;;;4.10;99.90;;;;;;5031642;28;20294;-61
2023/12/01 06:17:34;;;;;;;22.03;19.03;;;4.10;99.90;;;;;;5031446;28;20249;-61
2023/12/01 06:20:01;;;;;;;24.67;18.73;;;4.10;99.90;;;;;;5023544;28;20664;-61
2023/12/01 06:22:28;;;;;;;21.60;18.53;;;4.20;99.90;;;;;;5030598;28;20228;-61
2023/12/01 06:24:57;;;;;;;23.10;18.37;;;4.10;99.90;;;;;;5031221;28;20204;-61
2023/12/01 06:27:24;;;;;;;21.97;16.57;;;4.10;99.90;;;;;;5031088;28;20200;-61
2023/12/01 06:29:51;;;;;;;18.10;14.63;;;4.10;99.90;;;;;;5028859;28;20200;-61
2023/12/01 06:32:18;;;;;;;20.73;15.93;;;4.20;99.90;;;;;;5031407;28;20296;-61
2023/12/01 06:34:45;;;;;;;26.87;20.77;;;4.10;99.90;;;;;;5029754;28;20728;-61
2023/12/01 06:37:12;;;;;;;22.63;17.37;;;4.10;99.90;;;;;;5028510;28;20275;-62
2023/12/01 06:39:39;;;;;;;21.87;16.80;;;4.10;99.90;;;;;;5025320;28;20196;-61
2023/12/01 06:42:08;;;;;;;20.90;17.00;;;4.10;99.90;;;;;;5019569;28;20713;-61
2023/12/01 06:44:36;;;;;;;20.87;15.97;;;4.10;99.90;;;;;;5031269;28;20203;-61
2023/12/01 06:47:03;;;;;;;21.20;16.30;;;4.10;99.90;;;;;;5030189;28;20598;-61
2023/12/01 06:49:29;;;;;;;21.27;16.50;;;4.10;99.90;;;;;;5031387;28;20288;-61
2023/12/01 06:51:59;;;;;;;22.23;17.53;;;4.10;99.90;;;;;;5023140;28;20200;-62
2023/12/01 06:54:27;;;;;;;19.40;15.93;;;4.10;99.90;;;;;;5031252;28;20661;-61
2023/12/01 06:56:55;;;;;;;21.73;15.47;;;4.10;99.90;;;;;;5023614;28;20224;-62
2023/12/01 06:59:23;;;;;;;22.97;18.13;;;4.10;99.90;;;;;;5015235;28;20629;-61
2023/12/01 07:01:50;;;;;;;22.10;17.40;;;4.10;99.90;;;;;;5025073;28;20632;-61
2023/12/01 07:04:17;;;;;;;18.83;14.87;;;4.10;99.90;;;;;;5023003;28;20297;-61
2023/12/01 07:06:47;;;;;;;20.03;16.07;;;4.10;99.90;;;;;;5030612;28;20913;-61
2023/12/01 07:09:17;;;;;;;23.73;18.90;;;4.10;99.90;;;;;;5030544;28;20211;-62
2023/12/01 07:11:45;;;;;;;25.27;18.90;;;4.10;99.90;;;;;;5029342;28;20200;-61
2023/12/01 07:14:13;;;;;;;26.40;20.57;;;4.10;99.90;;;;;;5034375;28;20299;-61
2023/12/01 07:16:45;;;;;;;21.57;16.87;;;4.10;99.90;;;;;;5034697;28;20221;-61
2023/12/01 07:19:12;;;;;;;22.13;18.13;;;4.10;99.90;;;;;;5032798;28;20582;-61
2023/12/01 07:21:41;;;;;;;21.37;17.10;;;4.10;99.90;;;;;;5022507;28;20229;-61
2023/12/01 07:24:08;;;;;;;22.93;17.13;;;4.10;99.90;;;;;;5033299;28;20668;-61
2023/12/01 07:26:35;;;;;;;20.57;16.87;;;4.10;99.90;;;;;;5022749;28;20217;-61
2023/12/01 07:29:04;;;;;;;22.60;17.43;;;4.10;99.90;;;;;;5031200;28;20197;-62
2023/12/01 07:31:33;;;;;;;23.03;17.47;;;4.20;99.90;;;;;;5027505;28;20267;-61
2023/12/01 07:34:02;;;;;;;22.10;17.20;;;4.20;99.90;;;;;;5015361;28;20292;-62
2023/12/01 07:36:29;;;;;;;21.13;15.77;;;4.30;99.90;;;;;;5019060;28;20229;-61
2023/12/01 07:38:56;;;;;;;23.20;16.40;;;4.30;99.90;;;;;;5034857;28;20301;-62
2023/12/01 07:41:23;;;;;;;20.37;13.40;;;4.30;99.90;;;;;;5022512;28;20224;-62
2023/12/01 07:43:52;;;;;;;19.30;13.83;;;4.40;99.90;;;;;;5033125;28;20204;-62
2023/12/01 07:46:20;;;;;;;16.90;13.43;;;4.40;99.90;;;;;;5030593;28;20715;-60
2023/12/01 07:48:48;;;;;;;15.87;13.27;;;4.40;99.90;;;;;;5028163;28;20233;-61
2023/12/01 07:51:17;;;;;;;14.60;12.43;;;4.40;99.90;;;;;;5032311;28;20196;-61
2023/12/01 07:53:45;;;;;;;15.67;12.40;;;4.40;99.90;;;;;;5030155;28;20285;-61
2023/12/01 07:56:19;;;;;;;19.10;12.80;;;4.40;99.90;;;;;;5033712;28;20314;-61
2023/12/01 07:58:46;;;;;;;13.77;11.07;;;4.40;99.90;;;;;;5033237;28;20284;-61
2023/12/01 08:01:14;;;;;;;11.03;9.83;;;4.40;99.90;;;;;;5026046;28;20209;-61
2023/12/01 08:03:42;;;;;;;14.97;11.10;;;4.40;99.90;;;;;;5033384;28;20205;-61
2023/12/01 08:06:09;;;;;;;12.97;11.60;;;4.50;99.90;;;;;;5022186;28;20516;-60
2023/12/01 08:08:37;;;;;;;9.73;8.73;;;4.50;99.90;;;;;;5018021;28;20952;-60
2023/12/01 08:11:05;;;;;;;11.73;9.07;;;4.60;99.90;;;;;;5024815;28;20255;-60
2023/12/01 08:13:32;;;;;;;11.02;9.55;;;4.60;99.90;;;;;;5032905;28;20551;-62
2023/12/01 08:15:59;;;;;;;12.70;9.63;;;4.70;99.90;;;;;;5034038;28;20224;-62
2023/12/01 08:18:26;;;;;;;9.53;8.63;;;4.60;99.90;;;;;;5021723;28;20284;-63
2023/12/01 08:20:54;;;;;;;12.63;8.63;;;4.60;99.90;;;;;;5023880;28;20257;-63
2023/12/01 08:23:21;;;;;;;9.73;8.17;;;4.60;99.90;;;;;;5032431;28;20258;-63
2023/12/01 08:25:51;;;;;;;10.80;8.17;;;4.60;99.90;;;;;;5020316;28;20222;-63
2023/12/01 08:28:18;;;;;;;9.48;7.88;;;4.70;99.90;;;;;;5023581;28;21004;-60
2023/12/01 08:30:45;;;;;;;10.23;8.17;;;4.80;99.90;;;;;;5032575;28;20206;-60
2023/12/01 08:33:12;;;;;;;12.83;8.63;;;4.80;99.90;;;;;;5033804;28;20200;-59
2023/12/01 08:35:40;;;;;;;15.50;9.50;;;4.80;99.90;;;;;;5033378;28;20229;-61
2023/12/01 08:38:09;;;;;;;16.60;11.87;;;4.90;99.90;;;;;;5032316;28;20270;-61
2023/12/01 08:40:37;;;;;;;16.37;12.83;;;4.90;99.90;;;;;;5013777;28;20205;-61
2023/12/01 08:43:05;;;;;;;15.37;12.23;;;4.90;99.90;;;;;;5029518;28;20221;-60
2023/12/01 08:45:34;;;;;;;16.10;13.17;;;5.00;99.90;;;;;;5032813;28;20223;-61
2023/12/01 08:48:01;;;;;;;14.63;12.27;;;4.90;99.90;;;;;;5032997;28;20293;-61
2023/12/01 08:50:28;;;;;;;18.47;13.57;;;4.90;99.90;;;;;;5033454;28;20663;-62
2023/12/01 08:52:55;;;;;;;14.43;11.63;;;4.90;99.90;;;;;;5032715;28;20201;-60
2023/12/01 08:55:22;;;;;;;12.53;10.80;;;4.90;99.90;;;;;;5026545;28;20271;-60
2023/12/01 08:57:49;;;;;;;12.37;10.93;;;4.90;99.90;;;;;;5034134;28;20660;-60
2023/12/01 09:00:20;;;;;;;13.93;10.97;;;4.90;99.90;;;;;;5033197;28;20202;-61
2023/12/01 09:02:49;;;;;;;12.93;11.63;;;4.80;99.90;;;;;;5027847;28;20231;-61
2023/12/01 09:05:17;;;;;;;16.37;12.13;;;4.80;99.90;;;;;;5031135;28;20313;-61
2023/12/01 09:07:46;;;;;;;12.83;10.37;;;4.80;99.90;;;;;;5028838;28;20229;-61
2023/12/01 09:10:14;;;;;;;13.37;10.37;;;4.80;99.90;;;;;;5032916;28;20231;-61
2023/12/01 09:12:41;;;;;;;12.37;10.60;;;4.90;99.90;;;;;;5033433;28;20201;-61
2023/12/01 09:15:09;;;;;;;13.47;10.90;;;4.90;99.90;;;;;;5033276;28;20277;-60
2023/12/01 09:17:37;;;;;;;13.40;10.50;;;5.00;99.90;;;;;;5032726;28;20211;-61
2023/12/01 09:20:08;;;;;;;9.77;8.57;;;4.90;99.90;;;;;;5032732;28;20259;-61
2023/12/01 09:22:36;;;;;;;10.10;9.10;;;4.90;99.90;;;;;;5028250;28;20318;-61
2023/12/01 09:25:03;;;;;;;11.27;9.53;;;5.00;99.90;;;;;;5029882;28;20205;-61
2023/12/01 09:27:30;;;;;;;10.23;8.30;;;4.90;99.90;;;;;;5029139;28;20206;-61
2023/12/01 09:29:57;;;;;;;19.57;11.90;;;5.00;99.90;;;;;;5032948;28;20212;-61
2023/12/01 09:32:25;;;;;;;11.17;9.33;;;5.00;99.90;;;;;;5032796;28;20200;-61
2023/12/01 09:34:53;;;;;;;7.83;7.00;;;5.00;99.90;;;;;;5032251;28;20196;-60
2023/12/01 09:37:20;;;;;;;6.80;6.20;;;4.90;99.90;;;;;;5032622;28;20561;-61
2023/12/01 09:39:47;;;;;;;6.90;5.60;;;5.00;99.90;;;;;;5032903;28;20209;-61
2023/12/01 09:42:15;;;;;;;6.00;5.43;;;5.00;99.90;;;;;;5032557;28;20708;-61
2023/12/01 09:44:42;;;;;;;5.97;5.20;;;5.00;99.90;;;;;;5031240;28;20673;-61
2023/12/01 09:47:13;;;;;;;4.73;4.43;;;5.00;99.90;;;;;;5026018;28;20699;-61
2023/12/01 09:49:40;;;;;;;4.53;4.23;;;5.00;99.90;;;;;;5026284;28;20218;-61
2023/12/01 09:52:09;;;;;;;5.37;4.83;;;5.00;99.90;;;;;;5028205;28;20200;-61
2023/12/01 09:54:36;;;;;;;5.93;4.13;;;;;;;;;;5032356;28;20247;-61
2023/12/01 09:57:06;;;;;;;12.10;7.83;;;5.10;99.90;;;;;;5031213;28;20223;-60
2023/12/01 09:59:35;;;;;;;10.80;6.93;;;5.10;99.90;;;;;;5032087;28;20239;-61
2023/12/01 10:02:03;;;;;;;5.90;5.30;;;5.10;99.90;;;;;;5032338;28;20211;-61
2023/12/01 10:04:30;;;;;;;5.00;4.60;;;5.10;99.90;;;;;;5032444;28;20290;-61
2023/12/01 10:06:58;;;;;;;4.60;4.20;;;5.10;99.90;;;;;;5031652;28;20282;-61
2023/12/01 10:09:32;;;;;;;5.13;4.83;;;5.20;99.90;;;;;;5030787;28;20239;-61
2023/12/01 10:12:07;;;;;;;5.40;4.90;;;5.20;99.90;;;;;;5026387;28;20213;-61
2023/12/01 10:14:35;;;;;;;5.83;5.33;;;5.20;99.90;;;;;;5032046;28;20233;-61
2023/12/01 10:17:03;;;;;;;4.70;4.30;;;5.20;99.90;;;;;;5031754;28;20228;-61
2023/12/01 10:19:33;;;;;;;5.57;5.07;;;5.20;99.90;;;;;;5032175;28;20242;-61
2023/12/01 10:22:00;;;;;;;3.63;3.43;;;5.30;99.90;;;;;;5031937;28;20760;-61
2023/12/01 10:24:30;;;;;;;3.57;3.37;;;5.30;99.90;;;;;;5030555;28;20681;-61
2023/12/01 10:27:01;;;;;;;3.83;3.53;;;5.30;99.90;;;;;;5030120;28;20307;-61
2023/12/01 10:29:30;;;;;;;3.20;2.90;;;5.30;99.90;;;;;;5032152;28;20215;-61
2023/12/01 10:31:58;;;;;;;4.27;3.87;;;5.30;99.90;;;;;;5031917;28;20208;-61
2023/12/01 10:34:26;;;;;;;5.17;3.30;;;5.30;99.90;;;;;;5031881;28;20200;-61
2023/12/01 10:36:53;;;;;;;3.00;2.80;;;5.30;99.90;;;;;;5029910;28;20653;-61
2023/12/01 10:39:27;;;;;;;3.20;3.00;;;5.30;99.90;;;;;;5025894;28;20453;-62
2023/12/01 10:41:56;;;;;;;2.90;2.70;;;5.40;99.90;;;;;;5030916;28;20204;-59
2023/12/01 10:44:25;;;;;;;3.30;2.77;;;5.40;99.90;;;;;;5028620;28;20223;-61
2023/12/01 10:46:53;;;;;;;3.50;2.57;;;5.30;99.90;;;;;;5030364;28;20320;-61
2023/12/01 10:49:21;;;;;;;3.10;2.93;;;5.30;99.90;;;;;;5028630;28;20250;-61
2023/12/01 10:51:52;;;;;;;2.40;2.30;;;5.30;99.90;;;;;;5029679;28;20207;-62
2023/12/01 10:54:21;;;;;;;2.87;2.67;;;5.30;99.90;;;;;;5031666;28;20641;-61
2023/12/01 10:57:08;;;;;;;2.40;2.20;;;5.40;99.90;;;;;;5028602;28;20251;-61
2023/12/01 10:59:39;;;;;;;2.33;2.23;;;5.40;99.90;;;;;;5011768;28;20201;-61
2023/12/01 11:02:06;;;;;;;2.63;2.50;;;5.30;99.90;;;;;;5028213;28;20203;-62
2023/12/01 11:04:34;;;;;;;2.47;2.27;;;5.30;99.90;;;;;;5031186;28;20258;-69
2023/12/01 11:07:17;;;;;;;2.70;2.50;;;5.30;99.90;;;;;;5029967;28;20229;-69
2023/12/01 11:10:01;;;;;;;2.57;1.97;;;5.40;99.90;;;;;;5031288;28;20204;-71
2023/12/01 11:12:39;;;;;;;2.33;2.20;;;5.40;99.90;;;;;;5030841;28;20212;-71
2023/12/01 11:15:17;;;;;;;3.33;3.03;;;5.40;99.90;;;;;;5030678;28;20205;-70
2023/12/01 11:17:44;;;;;;;2.83;2.63;;;5.40;99.90;;;;;;5031022;28;20305;-72
2023/12/01 11:20:33;;;;;;;2.73;2.57;;;5.40;99.90;;;;;;5031161;28;20237;-72
2023/12/01 11:23:05;;;;;;;3.13;2.93;;;5.40;99.90;;;;;;5031016;28;20762;-68
2023/12/01 11:25:43;;;;;;;1.93;1.83;;;5.40;99.90;;;;;;5018704;28;20248;-67
2023/12/01 11:28:23;;;;;;;14.93;7.60;;;5.30;99.90;;;;;;5030739;28;20701;-69
2023/12/01 11:31:08;;;;;;;21.17;11.43;;;5.30;99.90;;;;;;5031160;28;20204;-66
2023/12/01 11:33:39;;;;;;;54.37;23.37;;;5.30;99.90;;;;;;5031025;28;20591;-60
2023/12/01 11:36:23;;;;;;;11.20;5.80;;;5.30;99.90;;;;;;5030947;28;20270;-60
2023/12/01 11:39:17;;;;;;;2.40;1.90;;;5.40;99.90;;;;;;5030179;28;20725;-60
2023/12/01 11:41:49;;;;;;;2.00;1.87;;;5.40;99.90;;;;;;5027627;28;20207;-60
2023/12/01 11:44:18;;;;;;;2.33;2.23;;;5.30;99.90;;;;;;5030846;28;20247;-59
2023/12/01 11:46:47;;;;;;;2.90;2.70;;;5.30;99.90;;;;;;5032478;28;20220;-61
2023/12/01 11:49:15;;;;;;;2.93;2.63;;;5.30;99.90;;;;;;5031661;28;20287;-60
2023/12/01 11:51:45;;;;;;;1.90;1.80;;;5.20;99.90;;;;;;5016271;28;20297;-60
2023/12/01 11:54:13;;;;;;;2.23;2.13;;;5.30;99.90;;;;;;5021498;28;20284;-65
2023/12/01 11:56:40;;;;;;;2.93;2.67;;;5.20;99.90;;;;;;5010492;28;20664;-64
2023/12/01 11:59:08;;;;;;;2.73;2.23;;;5.30;99.90;;;;;;5019833;28;20200;-65
2023/12/01 12:01:37;;;;;;;1.90;1.80;;;5.40;99.90;;;;;;5022530;28;20200;-66
2023/12/01 12:04:05;;;;;;;1.87;1.70;;;5.40;99.90;;;;;;5016822;28;20221;-63
2023/12/01 12:06:33;;;;;;;2.23;2.13;;;5.40;99.90;;;;;;5025614;28;20319;-61
2023/12/01 12:09:01;;;;;;;2.03;1.87;;;5.40;99.90;;;;;;5033240;28;20239;-61
2023/12/01 12:11:29;;;;;;;3.17;1.27;;;5.20;99.90;;;;;;5034132;28;20243;-62
2023/12/01 12:13:57;;;;;;;1.40;1.30;;;5.10;99.90;;;;;;5034160;28;20207;-63
2023/12/01 12:16:25;;;;;;;1.27;1.17;;;5.00;99.90;;;;;;5031989;28;20229;-61
2023/12/01 12:18:53;;;;;;;1.70;1.60;;;5.00;99.90;;;;;;5032644;28;20266;-62
2023/12/01 12:21:20;;;;;;;1.83;1.27;;;5.10;99.90;;;;;;5031417;28;20257;-63
2023/12/01 12:23:47;;;;;;;0.97;0.87;;;4.90;99.90;;;;;;5025563;28;20274;-63
2023/12/01 12:26:16;;;;;;;1.80;0.80;;;4.90;99.90;;;;;;5032592;28;20224;-62
2023/12/01 12:28:44;;;;;;;1.20;0.60;;;4.90;99.90;;;;;;5033824;28;20201;-62
2023/12/01 12:31:11;;;;;;;0.77;0.53;;;4.90;99.90;;;;;;5030822;28;20630;-61
2023/12/01 12:33:38;;;;;;;0.90;0.90;;;4.80;99.90;;;;;;5029179;28;20198;-62
2023/12/01 12:36:08;;;;;;;1.43;0.90;;;4.80;99.90;;;;;;5033623;28;20313;-62
2023/12/01 12:38:35;;;;;;;2.63;1.43;;;4.70;99.90;;;;;;5033746;28;20591;-64
2023/12/01 12:41:04;;;;;;;1.10;1.10;;;4.80;99.90;;;;;;5033297;28;20848;-64
2023/12/01 12:43:32;;;;;;;0.70;0.70;;;4.80;99.90;;;;;;5032512;28;20262;-63
2023/12/01 12:46:03;;;;;;;1.00;0.93;;;4.80;99.90;;;;;;5028567;28;20769;-66
2023/12/01 12:48:32;;;;;;;1.57;1.47;;;4.60;99.90;;;;;;5013628;28;20203;-68